Time;durP1;ratioP1;P1;durP2;ratioP2;P2;SDS_P1;SDS_P2;PMS_P1;PMS_P2;Temp;Humidity;BMP_temperature;BMP_pressure;BME280_temperature;BME280_humidity;BME280_pressure;Samples;Min_cycle;Max_cycle;Signal;HPM_P1;HPM_P2
2023/09/17 00:01:56;;;;;;;18.80;16.70;;;;;;;17.49;67.26;101612.96;105011;1262;60656;-61
2023/09/17 00:04:24;;;;;;;19.30;15.50;;;;;;;17.43;67.39;101607.66;105385;1263;60301;-61
2023/09/17 00:06:53;;;;;;;18.80;15.80;;;;;;;17.41;67.18;101610.46;104802;1266;65447;-61
2023/09/17 00:09:21;;;;;;;20.00;16.10;;;;;;;17.41;67.05;101611.39;105600;1264;61547;-62
2023/09/17 00:11:49;;;;;;;19.00;15.10;;;;;;;17.42;67.30;101609.91;104855;1261;63809;-60
2023/09/17 00:14:16;;;;;;;25.40;17.10;;;;;;;17.41;67.25;101606.01;104926;1265;60569;-60
2023/09/17 00:16:45;;;;;;;17.30;15.30;;;;;;;17.39;67.21;101609.30;104788;1261;60555;-61
2023/09/17 00:19:13;;;;;;;21.50;16.60;;;;;;;17.33;67.26;101608.59;104698;1265;67440;-58
2023/09/17 00:21:42;;;;;;;18.90;15.80;;;;;;;17.28;67.39;101609.70;104852;1265;61521;-62
2023/09/17 00:24:10;;;;;;;17.00;15.10;;;;;;;17.29;67.39;101610.48;104690;1265;63716;-61
2023/09/17 00:26:37;;;;;;;19.90;15.40;;;;;;;17.29;67.31;101609.96;104813;1263;60502;-62
2023/09/17 00:29:05;;;;;;;18.20;14.80;;;;;;;17.31;67.28;101609.43;104967;1261;60623;-61
2023/09/17 00:31:34;;;;;;;17.00;15.00;;;;;;;17.31;67.14;101607.48;104870;1265;64918;-61
2023/09/17 00:34:02;;;;;;;18.50;15.20;;;;;;;17.31;66.82;101604.63;105427;1262;60470;-62
2023/09/17 00:36:30;;;;;;;19.00;15.50;;;;;;;17.27;66.76;101603.71;104767;1260;63777;-57
2023/09/17 00:38:57;;;;;;;16.50;14.60;;;;;;;17.25;66.67;101599.88;105359;1265;60614;-58
2023/09/17 00:41:26;;;;;;;16.40;13.30;;;;;;;17.20;66.56;101598.91;104978;1262;60457;-57
2023/09/17 00:43:53;;;;;;;15.20;13.20;;;;;;;17.15;66.72;101600.77;105464;1262;63769;-57
2023/09/17 00:46:21;;;;;;;16.00;12.50;;;;;;;17.11;66.83;101595.56;104862;1264;61399;-57
2023/09/17 00:48:49;;;;;;;15.60;13.90;;;;;;;17.09;66.95;101600.06;104772;1264;64334;-58
2023/09/17 00:51:16;;;;;;;17.10;13.60;;;;;;;17.04;66.87;101599.91;104697;1260;60546;-58
2023/09/17 00:53:44;;;;;;;18.50;15.40;;;;;;;16.98;66.83;101600.79;105804;1263;60576;-59
2023/09/17 00:56:12;;;;;;;15.70;13.50;;;;;;;16.95;66.96;101603.77;104817;1259;66131;-57
2023/09/17 00:58:39;;;;;;;15.90;13.40;;;;;;;16.94;66.89;101602.60;104722;1261;61408;-57
2023/09/17 01:01:08;;;;;;;16.10;13.20;;;;;;;17.00;66.74;101604.17;104724;1266;64275;-57
2023/09/17 01:03:36;;;;;;;17.00;13.40;;;;;;;17.01;66.80;101606.58;104984;1259;60523;-57
2023/09/17 01:06:04;;;;;;;19.60;16.70;;;;;;;16.94;67.15;101603.66;104663;1260;60371;-57
2023/09/17 01:08:32;;;;;;;17.00;15.10;;;;;;;16.93;67.55;101603.79;105047;1265;64914;-57
2023/09/17 01:11:01;;;;;;;18.10;15.90;;;;;;;16.92;67.66;101603.50;104807;1265;61383;-59
2023/09/17 01:13:29;;;;;;;17.80;14.80;;;;;;;16.93;67.64;101598.74;105154;1267;62558;-57
2023/09/17 01:15:59;;;;;;;22.50;20.10;;;;;;;16.97;67.73;101603.57;105177;1262;60663;-57
2023/09/17 01:18:27;;;;;;;23.70;21.00;;;;;;;16.98;67.65;101603.09;105343;1257;60553;-58
2023/09/17 01:21:00;;;;;;;26.00;22.20;;;;;;;16.98;67.83;101604.21;104985;1262;63730;-58
2023/09/17 01:23:39;;;;;;;25.70;22.40;;;;;;;16.96;67.80;101603.34;106026;1258;61963;-58
2023/09/17 01:26:12;;;;;;;25.60;21.80;;;;;;;16.92;67.85;101603.66;105077;1265;63736;-58
2023/09/17 01:28:40;;;;;;;24.70;20.80;;;;;;;16.89;67.90;101603.55;105240;1263;60888;-58
2023/09/17 01:31:09;;;;;;;25.60;20.70;;;;;;;16.89;67.80;101602.14;105024;1263;60482;-58
2023/09/17 01:33:36;;;;;;;25.40;20.60;;;;;;;16.89;67.71;101600.70;105214;1263;64958;-59
2023/09/17 01:36:42;;;;;;;27.50;23.80;;;;;;;16.90;67.77;101597.27;104775;1264;60481;-59
2023/09/17 01:39:14;;;;;;;29.40;24.70;;;;;;;16.89;67.78;101593.77;104493;1265;62559;-59
2023/09/17 01:41:42;;;;;;;32.00;27.70;;;;;;;16.86;67.85;101591.02;104936;1261;60575;-58
2023/09/17 01:44:09;;;;;;;29.50;26.30;;;;;;;16.83;67.79;101588.59;104740;1263;60569;-57
2023/09/17 01:46:38;;;;;;;30.10;26.90;;;;;;;16.83;67.89;101586.09;104733;1257;63648;-59
2023/09/17 01:49:05;;;;;;;30.30;26.70;;;;;;;16.85;67.96;101586.88;105366;1263;60594;-59
2023/09/17 01:51:33;;;;;;;30.50;27.30;;;;;;;16.87;68.06;101586.19;104695;1258;65487;-59
2023/09/17 01:54:00;;;;;;;30.70;26.80;;;;;;;16.86;68.09;101584.67;104672;1259;60501;-58
2023/09/17 01:56:28;;;;;;;29.80;26.70;;;;;;;16.83;68.35;101586.15;105284;1262;60439;-58
2023/09/17 01:58:55;;;;;;;31.20;27.80;;;;;;;16.80;68.29;101585.38;104932;1263;63781;-59
2023/09/17 02:01:23;;;;;;;30.30;26.80;;;;;;;16.79;68.34;101582.41;105522;1265;60487;-59
2023/09/17 02:03:51;;;;;;;28.80;25.10;;;;;;;16.80;68.42;101583.34;104749;1263;62619;-58
2023/09/17 02:06:19;;;;;;;30.00;26.80;;;;;;;16.82;68.43;101587.63;104982;1260;60403;-58
2023/09/17 02:08:46;;;;;;;30.20;26.90;;;;;;;16.81;68.52;101590.20;105000;1261;60610;-59
2023/09/17 02:11:14;;;;;;;29.50;25.70;;;;;;;16.78;68.50;101584.64;105138;1263;64903;-58
2023/09/17 02:13:42;;;;;;;31.20;27.70;;;;;;;16.75;68.63;101581.73;104807;1264;61634;-58
2023/09/17 02:16:09;;;;;;;29.40;26.00;;;;;;;16.70;68.55;101580.02;104909;1260;64201;-60
2023/09/17 02:18:37;;;;;;;26.60;23.50;;;;;;;16.69;68.36;101579.38;105308;1262;60570;-59
2023/09/17 02:21:05;;;;;;;27.50;24.00;;;;;;;16.72;68.47;101579.14;104932;1260;60360;-59
2023/09/17 02:23:34;;;;;;;25.30;22.60;;;;;;;16.75;68.57;101577.50;105029;1257;63723;-58
2023/09/17 02:26:04;;;;;;;27.50;24.20;;;;;;;16.75;68.65;101577.30;105960;1263;61331;-58
2023/09/17 02:28:34;;;;;;;25.10;22.30;;;;;;;16.76;68.68;101576.11;105382;1262;63727;-59
2023/09/17 02:31:02;;;;;;;28.10;22.30;;;;;;;16.76;68.59;101577.34;104765;1257;60482;-57
2023/09/17 02:33:31;;;;;;;23.60;20.40;;;;;;;16.76;68.63;101575.91;104974;1258;60572;-58
2023/09/17 02:35:59;;;;;;;22.30;20.00;;;;;;;16.78;68.51;101577.02;104877;1262;65095;-58
2023/09/17 02:38:27;;;;;;;24.90;22.30;;;;;;;16.78;68.65;101578.23;104914;1262;61983;-60
2023/09/17 02:40:55;;;;;;;24.30;21.80;;;;;;;16.76;68.66;101577.87;105587;1258;63740;-59
2023/09/17 02:43:22;;;;;;;24.20;21.70;;;;;;;16.74;68.77;101576.83;105517;1261;60549;-58
2023/09/17 02:45:53;;;;;;;24.90;22.20;;;;;;;16.71;68.55;101573.92;105773;1263;60467;-57
2023/09/17 02:48:21;;;;;;;24.70;21.90;;;;;;;16.66;68.62;101576.61;104974;1262;64943;-57
2023/09/17 02:50:49;;;;;;;21.90;19.60;;;;;;;16.65;68.58;101575.30;104723;1257;61349;-58
2023/09/17 02:53:17;;;;;;;21.90;19.60;;;;;;;16.66;68.49;101574.64;104747;1264;63752;-56
2023/09/17 02:55:47;;;;;;;24.10;21.50;;;;;;;16.66;68.53;101575.02;104759;1261;63256;-57
2023/09/17 02:58:15;;;;;;;24.00;21.20;;;;;;;16.64;68.57;101575.79;104941;1261;60394;-58
2023/09/17 03:00:44;;;;;;;25.80;21.80;;;;;;;16.61;68.68;101577.44;104731;1257;65327;-57
2023/09/17 03:03:12;;;;;;;27.10;21.00;;;;;;;16.59;68.66;101576.56;104869;1261;60573;-58
2023/09/17 03:05:40;;;;;;;20.50;18.30;;;;;;;16.59;68.52;101575.70;105049;1263;63857;-58
2023/09/17 03:08:09;;;;;;;21.80;18.90;;;;;;;16.58;68.44;101574.02;104934;1260;60549;-56
2023/09/17 03:10:42;;;;;;;25.10;19.20;;;;;;;16.58;68.25;101570.83;105098;1263;60714;-57
2023/09/17 03:13:14;;;;;;;19.80;17.70;;;;;;;16.57;68.27;101566.32;105120;1257;74347;-57
2023/09/17 03:15:44;;;;;;;16.40;14.40;;;;;;;16.53;68.02;101565.36;105816;1260;61416;-57
2023/09/17 03:18:12;;;;;;;14.80;13.20;;;;;;;16.45;67.66;101567.10;104852;1264;64284;-56
2023/09/17 03:20:43;;;;;;;15.70;11.70;;;;;;;16.35;67.51;101567.10;104874;1258;62747;-57
2023/09/17 03:23:11;;;;;;;12.50;10.40;;;;;;;16.31;67.47;101569.77;104925;1257;60429;-56
2023/09/17 03:25:39;;;;;;;14.80;12.40;;;;;;;16.28;67.04;101570.32;105196;1257;65022;-57
2023/09/17 03:28:07;;;;;;;18.60;14.70;;;;;;;16.23;66.69;101569.39;105215;1258;61305;-57
2023/09/17 03:30:36;;;;;;;17.80;14.20;;;;;;;16.14;66.73;101570.06;104964;1260;64239;-57
2023/09/17 03:33:05;;;;;;;17.50;15.00;;;;;;;16.05;66.94;101571.59;105220;1261;60540;-57
2023/09/17 03:35:42;;;;;;;18.10;16.10;;;;;;;15.98;66.86;101574.48;104723;1264;60369;-58
2023/09/17 03:38:10;;;;;;;20.20;15.70;;;;;;;15.93;66.99;101576.07;104730;1257;63709;-56
2023/09/17 03:40:38;;;;;;;20.80;16.60;;;;;;;15.92;67.04;101572.48;104781;1261;62213;-55
2023/09/17 03:43:08;;;;;;;18.80;16.00;;;;;;;15.94;67.13;101573.05;105087;1264;64191;-57
2023/09/17 03:45:35;;;;;;;20.20;17.10;;;;;;;15.95;67.18;101574.16;105292;1257;61822;-57
2023/09/17 03:48:06;;;;;;;18.80;16.70;;;;;;;15.93;67.25;101573.80;104828;1258;60447;-56
2023/09/17 03:50:38;;;;;;;18.10;15.20;;;;;;;15.89;67.21;101574.70;105347;1257;65519;-56
2023/09/17 03:53:06;;;;;;;19.30;16.70;;;;;;;15.84;67.17;101577.39;104799;1257;61443;-59
2023/09/17 03:55:34;;;;;;;18.20;15.30;;;;;;;15.77;66.96;101574.96;104666;1265;62472;-58
2023/09/17 03:58:03;;;;;;;18.40;15.00;;;;;;;15.75;66.96;101575.81;104810;1263;60632;-57
2023/09/17 04:00:36;;;;;;;18.30;15.20;;;;;;;15.78;67.10;101577.53;105096;1263;60458;-59
2023/09/17 04:03:08;;;;;;;18.70;16.70;;;;;;;15.80;67.14;101575.61;104760;1258;63705;-57
2023/09/17 04:05:36;;;;;;;19.00;16.50;;;;;;;15.79;67.30;101576.55;105192;1262;61393;-58
2023/09/17 04:08:04;;;;;;;22.60;17.50;;;;;;;15.79;67.47;101579.39;105039;1257;63728;-57
2023/09/17 04:10:32;;;;;;;21.60;18.40;;;;;;;15.79;67.57;101578.81;105375;1262;60587;-55
2023/09/17 04:13:00;;;;;;;21.50;18.60;;;;;;;15.78;67.61;101579.23;105013;1257;61574;-57
2023/09/17 04:15:28;;;;;;;23.00;18.80;;;;;;;15.81;67.65;101579.11;105309;1261;66181;-58
2023/09/17 04:17:55;;;;;;;27.00;19.70;;;;;;;15.82;67.56;101579.92;104885;1261;61436;-58
2023/09/17 04:20:23;;;;;;;24.70;20.20;;;;;;;15.84;67.80;101583.40;104869;1260;65922;-57
2023/09/17 04:22:51;;;;;;;21.60;18.90;;;;;;;15.91;67.78;101584.97;104850;1265;60589;-58
2023/09/17 04:25:20;;;;;;;24.60;20.10;;;;;;;15.88;67.98;101589.42;104850;1257;60470;-57
2023/09/17 04:27:51;;;;;;;24.10;18.20;;;;;;;15.86;68.16;101591.91;104859;1257;66007;-57
2023/09/17 04:30:20;;;;;;;24.90;19.40;;;;;;;15.89;68.22;101591.35;104951;1262;61563;-57
2023/09/17 04:32:50;;;;;;;24.10;18.60;;;;;;;15.94;68.26;101595.11;105557;1258;62924;-57
2023/09/17 04:35:18;;;;;;;22.70;18.50;;;;;;;15.99;68.42;101593.67;105691;1259;60515;-57
2023/09/17 04:37:48;;;;;;;27.20;19.40;;;;;;;16.01;68.56;101596.88;108839;1257;59037;-56
2023/09/17 04:40:17;;;;;;;26.20;19.90;;;;;;;16.02;68.83;101598.04;106371;1258;63722;-56
2023/09/17 04:42:47;;;;;;;23.50;19.80;;;;;;;16.03;69.07;101594.02;105020;1262;60406;-56
2023/09/17 04:45:39;;;;;;;23.60;17.90;;;;;;;16.09;69.33;101598.65;105033;1257;63680;-55
2023/09/17 04:48:23;;;;;;;28.20;19.40;;;;;;;16.20;69.55;101596.34;104818;1261;61014;-57
2023/09/17 04:50:51;;;;;;;30.70;19.00;;;;;;;16.26;69.63;101593.87;104784;1260;60339;-58
2023/09/17 04:53:18;;;;;;;26.10;18.50;;;;;;;16.32;69.82;101598.32;104661;1257;63683;-54
2023/09/17 04:55:48;;;;;;;25.10;20.10;;;;;;;16.35;70.15;101596.80;104733;1257;61382;-57
2023/09/17 04:58:17;;;;;;;25.00;18.30;;;;;;;16.41;70.22;101592.22;104914;1258;66865;-55
2023/09/17 05:00:47;;;;;;;27.00;17.40;;;;;;;16.48;70.31;101593.63;104898;1258;60600;-56
2023/09/17 05:03:15;;;;;;;21.20;17.30;;;;;;;16.56;70.33;101590.23;104757;1264;60480;-56
2023/09/17 05:05:43;;;;;;;21.20;17.70;;;;;;;16.64;70.19;101592.39;104188;1263;64971;-59
2023/09/17 05:08:13;;;;;;;22.40;17.70;;;;;;;16.68;69.97;101595.58;104594;1263;61810;-54
2023/09/17 05:10:41;;;;;;;22.30;18.50;;;;;;;16.73;70.15;101596.44;105559;1264;63803;-57
2023/09/17 05:13:08;;;;;;;24.70;19.10;;;;;;;16.76;70.23;101598.83;104794;1264;60007;-54
2023/09/17 05:29:08;;;;;;;17.10;14.00;;;;;;;17.36;69.67;101593.21;103111;1285;605560;-57
2023/09/17 05:31:37;;;;;;;14.60;13.00;;;;;;;18.11;67.94;101596.57;104507;1272;150206;-59
2023/09/17 05:34:05;;;;;;;14.10;12.60;;;;;;;18.23;67.44;101599.55;104733;1270;59325;-58
2023/09/17 05:36:32;;;;;;;17.30;14.00;;;;;;;18.28;67.04;101598.89;104491;1268;63767;-59
2023/09/17 05:39:00;;;;;;;16.20;13.90;;;;;;;18.29;66.69;101601.10;104978;1257;62434;-59
2023/09/17 05:41:31;;;;;;;17.80;13.70;;;;;;;18.28;66.37;101600.86;105127;1256;62739;-59
2023/09/17 05:44:00;;;;;;;15.30;13.50;;;;;;;18.25;66.17;101602.52;105578;1258;59369;-58
2023/09/17 05:46:28;;;;;;;16.40;13.90;;;;;;;18.22;66.12;101600.11;105455;1259;59224;-57
2023/09/17 05:48:56;;;;;;;16.00;14.20;;;;;;;18.24;66.21;101600.33;104915;1263;63884;-56
2023/09/17 05:51:24;;;;;;;17.20;15.40;;;;;;;18.28;66.14;101602.06;104936;1260;60242;-57
2023/09/17 05:53:51;;;;;;;15.70;13.60;;;;;;;18.33;65.86;101600.73;104864;1261;62595;-57
2023/09/17 05:56:19;;;;;;;13.40;12.00;;;;;;;18.36;65.75;101594.19;105669;1256;59679;-59
2023/09/17 05:58:47;;;;;;;16.30;14.40;;;;;;;18.40;65.83;101596.38;105037;1256;59591;-56
2023/09/17 06:01:15;;;;;;;19.50;16.50;;;;;;;18.42;65.79;101601.17;105078;1260;63049;-56
2023/09/17 06:03:44;;;;;;;14.20;12.70;;;;;;;18.47;65.32;101599.80;106067;1260;60137;-62
2023/09/17 06:06:12;;;;;;;16.80;13.70;;;;;;;18.52;65.04;101599.63;105107;1261;62495;-60
2023/09/17 06:08:40;;;;;;;24.20;19.80;;;;;;;18.53;64.93;101602.39;105165;1257;59708;-58
2023/09/17 06:11:08;;;;;;;16.00;13.20;;;;;;;18.53;64.74;101602.33;104823;1255;64111;-59
2023/09/17 06:13:36;;;;;;;36.60;25.40;;;;;;;18.52;64.59;101607.11;104981;1257;71862;-58
2023/09/17 06:16:04;;;;;;;42.00;28.30;;;;;;;18.50;64.54;101605.89;105047;1261;61803;-58
2023/09/17 06:18:32;;;;;;;46.00;32.20;;;;;;;18.55;64.83;101603.64;107147;1256;64116;-58
2023/09/17 06:21:01;;;;;;;18.30;13.90;;;;;;;18.64;64.56;101606.86;105169;1260;59847;-58
2023/09/17 06:23:29;;;;;;;18.60;15.40;;;;;;;18.68;64.26;101607.16;104802;1256;59618;-54
2023/09/17 06:25:56;;;;;;;36.60;25.50;;;;;;;18.65;64.15;101612.84;104903;1260;64124;-58
2023/09/17 06:28:24;;;;;;;22.30;17.80;;;;;;;18.61;64.08;101615.63;105070;1256;62474;-57
2023/09/17 06:30:53;;;;;;;18.40;14.90;;;;;;;18.60;63.96;101616.98;105831;1256;62606;-58
2023/09/17 06:33:20;;;;;;;15.50;13.80;;;;;;;18.60;63.92;101614.54;105882;1256;59629;-57
2023/09/17 06:35:49;;;;;;;18.40;14.20;;;;;;;18.56;63.51;101613.79;106587;1254;59683;-59
2023/09/17 06:38:16;;;;;;;16.70;14.40;;;;;;;18.52;63.20;101616.00;105338;1254;62923;-57
2023/09/17 06:40:44;;;;;;;16.50;14.80;;;;;;;18.46;63.63;101618.00;105212;1257;60395;-58
2023/09/17 06:43:13;;;;;;;17.10;15.00;;;;;;;18.42;64.00;101620.48;105226;1253;63333;-55
2023/09/17 06:45:40;;;;;;;16.80;15.10;;;;;;;18.46;64.47;101620.45;106269;1254;60910;-56
2023/09/17 06:48:08;;;;;;;16.60;13.70;;;;;;;18.51;64.40;101623.55;105367;1253;59708;-56
2023/09/17 06:50:35;;;;;;;16.90;13.50;;;;;;;18.54;64.44;101625.70;105066;1253;62871;-51
2023/09/17 06:53:04;;;;;;;16.90;14.20;;;;;;;18.64;64.44;101626.25;105694;1253;61281;-55
2023/09/17 06:55:33;;;;;;;18.20;14.90;;;;;;;18.76;64.58;101627.95;105117;1253;63734;-54
2023/09/17 06:58:00;;;;;;;17.10;15.30;;;;;;;18.84;64.33;101626.88;105487;1253;59601;-53
2023/09/17 07:00:28;;;;;;;16.70;14.80;;;;;;;18.83;64.27;101623.54;105146;1254;59550;-52
2023/09/17 07:02:56;;;;;;;18.40;14.30;;;;;;;18.79;64.12;101621.63;105119;1253;64209;-53
2023/09/17 07:05:23;;;;;;;16.10;14.50;;;;;;;18.73;64.06;101623.39;105592;1253;61535;-53
2023/09/17 07:07:51;;;;;;;16.10;13.90;;;;;;;18.72;64.08;101626.20;105119;1254;63771;-55
2023/09/17 07:10:19;;;;;;;14.60;13.10;;;;;;;18.78;64.43;101625.25;105222;1254;59845;-53
2023/09/17 07:12:47;;;;;;;16.40;14.60;;;;;;;18.89;64.50;101624.73;105044;1254;59670;-51
2023/09/17 07:15:15;;;;;;;16.60;14.80;;;;;;;18.98;64.54;101623.77;104892;1253;62857;-52
2023/09/17 07:17:43;;;;;;;16.10;14.40;;;;;;;19.04;64.40;101625.36;104967;1257;60472;-52
2023/09/17 07:20:14;;;;;;;17.80;15.90;;;;;;;19.06;64.08;101622.61;105119;1254;62517;-53
2023/09/17 07:22:41;;;;;;;16.90;15.00;;;;;;;19.11;64.08;101620.02;104858;1257;60169;-53
2023/09/17 07:25:09;;;;;;;15.90;14.30;;;;;;;19.20;63.93;101616.60;104870;1255;59850;-57
2023/09/17 07:27:37;;;;;;;17.20;15.40;;;;;;;19.30;63.98;101612.84;104665;1258;64110;-56
2023/09/17 07:30:05;;;;;;;18.10;16.20;;;;;;;19.39;63.74;101610.89;104928;1253;63241;-51
2023/09/17 07:32:33;;;;;;;18.20;16.30;;;;;;;19.44;63.69;101611.66;106216;1254;63836;-58
2023/09/17 07:35:03;;;;;;;18.20;15.90;;;;;;;19.49;63.91;101616.17;104967;1253;59723;-60
2023/09/17 07:37:31;;;;;;;17.60;15.50;;;;;;;19.53;64.03;101613.05;105046;1253;59612;-59
2023/09/17 07:40:16;;;;;;;15.80;13.10;;;;;;;19.58;63.92;101606.89;105235;1253;64191;-58
2023/09/17 07:42:44;;;;;;;15.50;13.80;;;;;;;19.64;63.69;101606.14;105208;1256;60219;-56
2023/09/17 07:45:13;;;;;;;18.30;15.50;;;;;;;19.71;63.36;101604.50;105168;1254;63722;-58
2023/09/17 07:47:40;;;;;;;18.70;15.50;;;;;;;19.79;63.23;101600.39;106142;1254;59734;-56
2023/09/17 07:50:09;;;;;;;17.00;15.20;;;;;;;19.81;63.03;101599.45;105320;1253;59749;-56
2023/09/17 07:52:39;;;;;;;17.60;15.70;;;;;;;19.82;63.00;101601.89;106445;1253;64239;-54
2023/09/17 07:55:08;;;;;;;17.30;14.80;;;;;;;19.84;62.56;101599.02;105293;1253;61973;-55
2023/09/17 07:57:35;;;;;;;17.00;14.80;;;;;;;19.85;62.82;101599.58;105606;1257;62427;-56
2023/09/17 08:00:04;;;;;;;16.70;14.90;;;;;;;19.94;62.93;101598.13;105755;1253;60853;-57
2023/09/17 08:02:38;;;;;;;17.30;15.30;;;;;;;20.08;62.40;101595.55;105491;1253;59763;-56
2023/09/17 08:05:07;;;;;;;17.80;14.70;;;;;;;20.17;62.07;101594.21;105700;1253;64070;-56
2023/09/17 08:07:40;;;;;;;18.10;16.20;;;;;;;20.25;61.80;101592.73;105553;1253;61966;-57
2023/09/17 08:10:10;;;;;;;16.40;14.50;;;;;;;20.33;61.61;101590.48;105638;1254;63720;-57
2023/09/17 08:12:38;;;;;;;15.70;14.00;;;;;;;20.41;61.76;101588.62;105591;1254;59810;-58
2023/09/17 08:15:07;;;;;;;15.90;14.20;;;;;;;20.52;61.45;101588.68;105700;1253;60199;-58
2023/09/17 08:17:35;;;;;;;18.80;13.90;;;;;;;20.65;60.89;101586.81;105533;1256;64078;-59
2023/09/17 08:20:03;;;;;;;19.90;15.10;;;;;;;20.74;60.38;101580.92;105254;1253;61958;-59
2023/09/17 08:22:30;;;;;;;17.10;13.60;;;;;;;20.79;59.94;101577.57;105709;1253;64466;-58
2023/09/17 08:24:58;;;;;;;16.30;14.30;;;;;;;20.83;59.74;101578.63;105257;1258;59846;-57
2023/09/17 08:27:25;;;;;;;17.30;15.10;;;;;;;20.85;59.30;101574.96;105353;1253;60037;-57
2023/09/17 08:29:53;;;;;;;15.00;12.20;;;;;;;20.87;59.09;101570.95;105347;1253;62827;-57
2023/09/17 08:32:21;;;;;;;14.90;12.60;;;;;;;20.99;59.26;101567.48;105216;1254;61880;-57
2023/09/17 08:34:48;;;;;;;15.90;11.90;;;;;;;21.13;58.85;101563.45;105343;1254;63683;-59
2023/09/17 08:37:17;;;;;;;15.90;12.90;;;;;;;21.26;58.67;101566.55;105321;1254;59783;-58
2023/09/17 08:39:45;;;;;;;14.80;12.30;;;;;;;21.35;58.03;101563.83;105338;1253;59603;-55
2023/09/17 08:42:12;;;;;;;16.50;12.10;;;;;;;21.44;57.48;101568.17;105283;1253;62955;-56
2023/09/17 08:44:40;;;;;;;15.60;13.00;;;;;;;21.49;56.92;101562.70;105486;1253;61417;-59
2023/09/17 08:47:08;;;;;;;15.00;12.60;;;;;;;21.54;56.66;101560.96;105235;1256;62532;-59
2023/09/17 08:49:36;;;;;;;14.70;12.10;;;;;;;21.57;56.16;101551.99;105194;1257;60320;-58
2023/09/17 08:52:04;;;;;;;14.70;12.50;;;;;;;21.58;56.03;101552.67;105177;1253;60406;-58
2023/09/17 08:54:41;;;;;;;13.40;11.00;;;;;;;21.60;56.02;101551.83;105644;1253;62987;-61
2023/09/17 08:57:10;;;;;;;17.80;11.30;;;;;;;21.71;55.97;101551.86;105426;1253;61952;-57
2023/09/17 08:59:41;;;;;;;13.90;10.90;;;;;;;21.85;55.53;101555.41;105550;1257;62520;-60
2023/09/17 09:02:15;;;;;;;15.50;11.10;;;;;;;21.96;54.41;101554.53;105525;1253;59745;-56
2023/09/17 09:04:43;;;;;;;14.70;10.30;;;;;;;22.06;53.55;101553.02;106351;1253;59553;-58
2023/09/17 09:07:10;;;;;;;12.60;10.20;;;;;;;22.18;53.62;101548.92;105231;1257;64137;-57
2023/09/17 09:09:40;;;;;;;14.00;10.00;;;;;;;22.31;53.05;101547.98;106380;1253;61365;-56
2023/09/17 09:12:07;;;;;;;14.10;10.30;;;;;;;22.42;51.94;101546.44;105589;1253;63773;-57
2023/09/17 09:14:35;;;;;;;14.30;9.80;;;;;;;22.48;50.79;101549.84;105676;1257;59695;-56
2023/09/17 09:17:03;;;;;;;12.00;9.40;;;;;;;22.53;50.11;101546.67;105231;1259;59686;-58
2023/09/17 09:19:31;;;;;;;13.50;8.90;;;;;;;22.57;49.74;101541.63;105813;1253;64148;-60
2023/09/17 09:21:59;;;;;;;11.60;9.10;;;;;;;22.65;49.75;101543.46;105881;1257;60666;-55
2023/09/17 09:24:29;;;;;;;12.00;9.30;;;;;;;22.73;49.59;101545.59;105230;1257;63659;-58
2023/09/17 09:26:58;;;;;;;9.90;7.70;;;;;;;22.80;48.88;101542.96;105839;1257;59670;-57
2023/09/17 09:29:26;;;;;;;10.90;8.70;;;;;;;22.86;48.35;101540.36;105790;1253;59589;-56
2023/09/17 09:31:56;;;;;;;11.00;8.30;;;;;;;22.95;48.12;101535.11;105986;1253;62897;-57
2023/09/17 09:34:25;;;;;;;13.30;8.00;;;;;;;23.03;47.74;101531.67;105134;1253;61417;-56
2023/09/17 09:36:54;;;;;;;11.00;7.60;;;;;;;23.07;47.16;101533.28;106524;1254;64205;-58
2023/09/17 09:39:21;;;;;;;8.60;6.60;;;;;;;23.12;46.73;101533.50;105958;1253;60367;-54
2023/09/17 09:41:49;;;;;;;8.20;6.60;;;;;;;23.16;46.84;101531.05;105148;1256;60455;-55
2023/09/17 09:44:16;;;;;;;9.80;7.40;;;;;;;23.20;46.54;101530.45;105359;1253;65044;-56
2023/09/17 09:46:44;;;;;;;9.70;7.10;;;;;;;23.24;45.61;101529.83;105211;1254;61864;-53
2023/09/17 09:49:12;;;;;;;10.00;6.90;;;;;;;23.28;45.48;101530.07;105369;1258;62489;-54
2023/09/17 09:51:39;;;;;;;9.80;7.10;;;;;;;23.32;45.24;101529.16;105308;1253;60451;-54
2023/09/17 09:54:07;;;;;;;8.90;5.90;;;;;;;23.37;45.05;101527.52;105361;1257;60576;-58
2023/09/17 09:56:35;;;;;;;8.40;6.50;;;;;;;23.41;44.63;101522.90;105347;1257;64968;-56
2023/09/17 09:59:03;;;;;;;7.60;6.20;;;;;;;23.46;44.88;101523.81;105646;1253;62115;-61
2023/09/17 10:01:31;;;;;;;9.20;6.60;;;;;;;23.52;44.76;101525.94;106304;1253;63725;-63
2023/09/17 10:03:59;;;;;;;8.80;6.10;;;;;;;23.58;44.24;101522.40;106009;1253;60537;-60
2023/09/17 10:06:27;;;;;;;8.30;6.60;;;;;;;23.64;44.05;101520.51;106245;1257;60457;-62
2023/09/17 10:08:54;;;;;;;8.50;5.90;;;;;;;23.70;44.38;101524.96;106082;1254;63691;-60
2023/09/17 10:11:24;;;;;;;12.10;6.50;;;;;;;23.78;44.19;101526.36;105424;1259;60511;-60
2023/09/17 10:14:01;;;;;;;9.70;6.60;;;;;;;23.84;43.71;101522.04;105214;1256;63750;-61
2023/09/17 10:16:30;;;;;;;9.50;6.60;;;;;;;23.89;43.60;101517.11;105784;1258;60429;-61
2023/09/17 10:18:58;;;;;;;8.00;6.30;;;;;;;23.95;43.63;101516.61;106731;1253;60323;-63
2023/09/17 10:21:27;;;;;;;9.00;6.00;;;;;;;24.02;43.41;101515.47;106000;1256;64866;-60
2023/09/17 10:23:56;;;;;;;9.50;6.70;;;;;;;24.08;43.28;101512.85;105782;1257;61355;-60
2023/09/17 10:26:24;;;;;;;9.40;6.50;;;;;;;24.17;43.22;101509.53;105805;1253;63681;-61
2023/09/17 10:28:51;;;;;;;8.70;6.40;;;;;;;24.25;43.20;101510.38;105310;1259;60553;-64
2023/09/17 10:31:20;;;;;;;10.70;6.60;;;;;;;24.33;43.16;101507.98;105326;1257;60532;-61
2023/09/17 10:33:49;;;;;;;8.20;6.00;;;;;;;24.40;42.62;101505.48;105335;1254;63786;-61
2023/09/17 10:36:17;;;;;;;8.30;6.40;;;;;;;24.48;42.30;101502.01;105953;1253;72490;-60
2023/09/17 10:38:46;;;;;;;9.20;6.50;;;;;;;24.55;42.26;101502.40;105378;1254;63765;-62
2023/09/17 10:41:14;;;;;;;7.90;6.00;;;;;;;24.63;41.80;101503.02;105395;1253;60441;-62
2023/09/17 10:43:41;;;;;;;9.40;6.60;;;;;;;24.70;42.08;101502.71;105298;1258;60473;-60
2023/09/17 10:46:09;;;;;;;9.10;6.20;;;;;;;24.76;42.07;101501.36;105426;1259;64912;-58
2023/09/17 10:48:37;;;;;;;9.50;6.40;;;;;;;24.81;41.94;101502.16;105267;1259;60447;-62
2023/09/17 10:51:04;;;;;;;8.80;6.20;;;;;;;24.88;41.79;101493.35;105563;1261;62480;-61
2023/09/17 10:53:32;;;;;;;9.80;6.50;;;;;;;24.96;41.70;101491.41;105277;1253;60490;-60
2023/09/17 10:56:04;;;;;;;8.40;5.90;;;;;;;25.04;41.86;101489.04;105219;1259;60361;-58
2023/09/17 10:58:42;;;;;;;9.00;6.00;;;;;;;25.12;41.41;101489.03;105597;1253;63714;-59
2023/09/17 11:01:15;;;;;;;7.50;5.80;;;;;;;25.19;41.14;101484.01;105406;1253;61405;-54
2023/09/17 11:03:47;;;;;;;9.40;6.50;;;;;;;25.25;41.03;101482.20;105304;1253;64185;-56
2023/09/17 11:06:16;;;;;;;9.80;6.70;;;;;;;25.31;41.33;101476.77;105343;1253;60499;-59
2023/09/17 11:08:45;;;;;;;8.90;6.60;;;;;;;25.38;41.49;101471.11;105636;1253;60649;-61
2023/09/17 11:11:13;;;;;;;9.90;6.40;;;;;;;25.46;41.24;101470.05;105315;1253;63663;-60
2023/09/17 11:13:46;;;;;;;9.60;6.10;;;;;;;25.52;41.44;101470.64;105485;1257;62615;-62
2023/09/17 11:16:20;;;;;;;7.60;5.80;;;;;;;25.61;40.79;101467.43;105181;1253;63708;-63
2023/09/17 11:19:04;;;;;;;9.50;6.20;;;;;;;25.64;40.14;101464.19;106201;1253;60498;-61
2023/09/17 11:21:48;;;;;;;8.60;5.40;;;;;;;25.67;40.49;101461.26;106229;1253;60349;-63
2023/09/17 11:24:18;;;;;;;8.50;6.40;;;;;;;25.75;39.69;101462.67;105143;1259;63636;-63
2023/09/17 11:26:45;;;;;;;9.20;6.40;;;;;;;25.84;39.28;101459.98;106168;1253;61889;-59